sensor_id;sensor_type;location;lat;lon;timestamp;temperature;humidity
12123;DHT22;6125;59.628;17.852;2023-07-31T00:02:04;16.10;99.90
12123;DHT22;6125;59.628;17.852;2023-07-31T00:04:31;16.10;99.90
12123;DHT22;6125;59.628;17.852;2023-07-31T00:06:58;16.10;99.90
12123;DHT22;6125;59.628;17.852;2023-07-31T00:09:25;16.00;99.90
12123;DHT22;6125;59.628;17.852;2023-07-31T00:11:52;16.00;99.90
12123;DHT22;6125;59.628;17.852;2023-07-31T00:14:21;15.90;99.90
12123;DHT22;6125;59.628;17.852;2023-07-31T00:16:48;15.90;99.90
12123;DHT22;6125;59.628;17.852;2023-07-31T00:19:15;15.90;99.90
12123;DHT22;6125;59.628;17.852;2023-07-31T00:21:43;15.80;99.90
12123;DHT22;6125;59.628;17.852;2023-07-31T00:24:10;15.80;99.90
12123;DHT22;6125;59.628;17.852;2023-07-31T00:26:37;15.80;99.90
12123;DHT22;6125;59.628;17.852;2023-07-31T00:29:05;15.80;99.90
12123;DHT22;6125;59.628;17.852;2023-07-31T00:31:33;15.70;99.90
12123;DHT22;6125;59.628;17.852;2023-07-31T00:34:00;15.70;99.90
12123;DHT22;6125;59.628;17.852;2023-07-31T00:36:27;15.60;99.90
12123;DHT22;6125;59.628;17.852;2023-07-31T00:38:54;15.70;99.90
12123;DHT22;6125;59.628;17.852;2023-07-31T00:41:21;15.60;99.90
12123;DHT22;6125;59.628;17.852;2023-07-31T00:43:49;15.60;99.90
12123;DHT22;6125;59.628;17.852;2023-07-31T00:46:16;15.50;99.90
12123;DHT22;6125;59.628;17.852;2023-07-31T00:48:45;15.40;99.90
12123;DHT22;6125;59.628;17.852;2023-07-31T00:51:12;15.40;99.90
12123;DHT22;6125;59.628;17.852;2023-07-31T00:53:39;15.40;99.90
12123;DHT22;6125;59.628;17.852;2023-07-31T00:56:07;15.30;99.90
12123;DHT22;6125;59.628;17.852;2023-07-31T00:58:34;15.30;99.90
12123;DHT22;6125;59.628;17.852;2023-07-31T01:01:01;15.30;99.90
12123;DHT22;6125;59.628;17.852;2023-07-31T01:03:28;15.30;99.90
12123;DHT22;6125;59.628;17.852;2023-07-31T01:06:06;15.20;99.90
12123;DHT22;6125;59.628;17.852;2023-07-31T01:08:41;15.20;99.90
12123;DHT22;6125;59.628;17.852;2023-07-31T01:11:15;15.10;99.90
12123;DHT22;6125;59.628;17.852;2023-07-31T01:13:44;15.10;99.90
12123;DHT22;6125;59.628;17.852;2023-07-31T01:16:12;15.10;99.90
12123;DHT22;6125;59.628;17.852;2023-07-31T01:18:39;15.00;99.90
12123;DHT22;6125;59.628;17.852;2023-07-31T01:21:22;15.00;99.90
12123;DHT22;6125;59.628;17.852;2023-07-31T01:24:09;15.00;99.90
12123;DHT22;6125;59.628;17.852;2023-07-31T01:26:46;15.00;99.90
12123;DHT22;6125;59.628;17.852;2023-07-31T01:29:23;15.00;99.90
12123;DHT22;6125;59.628;17.852;2023-07-31T01:32:06;15.00;99.90
12123;DHT22;6125;59.628;17.852;2023-07-31T01:34:35;14.90;99.90
12123;DHT22;6125;59.628;17.852;2023-07-31T01:37:04;14.90;99.90
12123;DHT22;6125;59.628;17.852;2023-07-31T01:39:31;14.90;99.90
12123;DHT22;6125;59.628;17.852;2023-07-31T01:41:59;14.90;99.90
12123;DHT22;6125;59.628;17.852;2023-07-31T01:44:26;14.90;99.90
12123;DHT22;6125;59.628;17.852;2023-07-31T01:46:53;14.80;99.90
12123;DHT22;6125;59.628;17.852;2023-07-31T01:49:21;14.80;99.90
12123;DHT22;6125;59.628;17.852;2023-07-31T01:51:48;14.80;99.90
12123;DHT22;6125;59.628;17.852;2023-07-31T01:54:15;14.80;99.90
12123;DHT22;6125;59.628;17.852;2023-07-31T01:56:42;14.70;99.90
12123;DHT22;6125;59.628;17.852;2023-07-31T01:59:10;14.70;99.90
12123;DHT22;6125;59.628;17.852;2023-07-31T02:01:37;14.60;99.90
12123;DHT22;6125;59.628;17.852;2023-07-31T02:04:04;14.60;99.90
12123;DHT22;6125;59.628;17.852;2023-07-31T02:06:32;14.60;99.90
12123;DHT22;6125;59.628;17.852;2023-07-31T02:08:59;14.60;99.90
12123;DHT22;6125;59.628;17.852;2023-07-31T02:11:26;14.60;99.90
12123;DHT22;6125;59.628;17.852;2023-07-31T02:13:53;14.60;99.90
12123;DHT22;6125;59.628;17.852;2023-07-31T02:16:22;14.60;99.90
12123;DHT22;6125;59.628;17.852;2023-07-31T02:18:49;14.50;99.90
12123;DHT22;6125;59.628;17.852;2023-07-31T02:21:16;14.50;99.90
12123;DHT22;6125;59.628;17.852;2023-07-31T02:23:43;14.40;99.90
12123;DHT22;6125;59.628;17.852;2023-07-31T02:26:10;14.40;99.90
12123;DHT22;6125;59.628;17.852;2023-07-31T02:28:37;14.40;99.90
12123;DHT22;6125;59.628;17.852;2023-07-31T02:31:04;14.40;99.90
12123;DHT22;6125;59.628;17.852;2023-07-31T02:33:33;14.50;99.90
12123;DHT22;6125;59.628;17.852;2023-07-31T02:36:00;14.50;99.90
12123;DHT22;6125;59.628;17.852;2023-07-31T02:38:27;14.50;99.90
12123;DHT22;6125;59.628;17.852;2023-07-31T02:40:53;14.40;99.90
12123;DHT22;6125;59.628;17.852;2023-07-31T02:43:20;14.40;99.90
12123;DHT22;6125;59.628;17.852;2023-07-31T02:45:51;14.50;99.90
12123;DHT22;6125;59.628;17.852;2023-07-31T02:48:24;14.40;99.90
12123;DHT22;6125;59.628;17.852;2023-07-31T02:50:53;14.50;99.90
12123;DHT22;6125;59.628;17.852;2023-07-31T02:53:20;14.40;99.90
12123;DHT22;6125;59.628;17.852;2023-07-31T02:55:48;14.40;99.90
12123;DHT22;6125;59.628;17.852;2023-07-31T02:58:15;14.40;99.90
12123;DHT22;6125;59.628;17.852;2023-07-31T03:00:43;14.40;99.90
12123;DHT22;6125;59.628;17.852;2023-07-31T03:03:10;14.50;99.90
12123;DHT22;6125;59.628;17.852;2023-07-31T03:05:37;14.60;99.90
12123;DHT22;6125;59.628;17.852;2023-07-31T03:08:06;14.60;99.90
12123;DHT22;6125;59.628;17.852;2023-07-31T03:10:33;14.60;99.90
12123;DHT22;6125;59.628;17.852;2023-07-31T03:13:00;14.70;99.90
12123;DHT22;6125;59.628;17.852;2023-07-31T03:15:27;14.70;99.90
12123;DHT22;6125;59.628;17.852;2023-07-31T03:17:54;14.70;99.90
12123;DHT22;6125;59.628;17.852;2023-07-31T03:20:21;14.70;99.90
12123;DHT22;6125;59.628;17.852;2023-07-31T03:22:48;14.70;99.90
12123;DHT22;6125;59.628;17.852;2023-07-31T03:25:16;14.70;99.90
12123;DHT22;6125;59.628;17.852;2023-07-31T03:27:43;14.80;99.90
12123;DHT22;6125;59.628;17.852;2023-07-31T03:30:11;14.80;99.90
12123;DHT22;6125;59.628;17.852;2023-07-31T03:32:38;14.80;99.90
12123;DHT22;6125;59.628;17.852;2023-07-31T03:35:05;14.80;99.90
12123;DHT22;6125;59.628;17.852;2023-07-31T03:37:32;14.80;99.90
12123;DHT22;6125;59.628;17.852;2023-07-31T03:40:00;14.80;99.90
12123;DHT22;6125;59.628;17.852;2023-07-31T03:42:28;14.80;99.90
12123;DHT22;6125;59.628;17.852;2023-07-31T03:44:55;14.90;99.90
12123;DHT22;6125;59.628;17.852;2023-07-31T03:47:22;14.90;99.90
12123;DHT22;6125;59.628;17.852;2023-07-31T03:49:49;14.90;99.90
12123;DHT22;6125;59.628;17.852;2023-07-31T03:52:16;14.90;99.90
12123;DHT22;6125;59.628;17.852;2023-07-31T03:54:43;14.90;99.90
12123;DHT22;6125;59.628;17.852;2023-07-31T03:57:11;15.00;99.90
12123;DHT22;6125;59.628;17.852;2023-07-31T03:59:40;15.00;99.90
12123;DHT22;6125;59.628;17.852;2023-07-31T04:02:07;15.00;99.90
12123;DHT22;6125;59.628;17.852;2023-07-31T04:04:34;15.10;99.90
12123;DHT22;6125;59.628;17.852;2023-07-31T04:07:01;15.20;99.90
12123;DHT22;6125;59.628;17.852;2023-07-31T04:09:28;15.20;99.90
12123;DHT22;6125;59.628;17.852;2023-07-31T04:11:55;15.30;99.90
12123;DHT22;6125;59.628;17.852;2023-07-31T04:14:22;15.30;99.90
12123;DHT22;6125;59.628;17.852;2023-07-31T04:16:51;15.30;99.90
12123;DHT22;6125;59.628;17.852;2023-07-31T04:19:19;15.40;99.90
12123;DHT22;6125;59.628;17.852;2023-07-31T04:21:46;15.40;99.90
12123;DHT22;6125;59.628;17.852;2023-07-31T04:24:13;15.50;99.90
12123;DHT22;6125;59.628;17.852;2023-07-31T04:26:40;15.50;99.90
12123;DHT22;6125;59.628;17.852;2023-07-31T04:29:07;15.60;99.90
12123;DHT22;6125;59.628;17.852;2023-07-31T04:31:34;15.60;99.90
12123;DHT22;6125;59.628;17.852;2023-07-31T04:34:03;15.60;99.90
12123;DHT22;6125;59.628;17.852;2023-07-31T04:36:30;15.70;99.90
12123;DHT22;6125;59.628;17.852;2023-07-31T04:38:57;15.70;99.90
12123;DHT22;6125;59.628;17.852;2023-07-31T04:41:24;15.70;99.90
12123;DHT22;6125;59.628;17.852;2023-07-31T04:43:51;15.80;99.90
12123;DHT22;6125;59.628;17.852;2023-07-31T04:46:18;15.80;99.90
12123;DHT22;6125;59.628;17.852;2023-07-31T04:48:45;15.90;99.90
12123;DHT22;6125;59.628;17.852;2023-07-31T04:51:14;15.90;99.90
12123;DHT22;6125;59.628;17.852;2023-07-31T04:53:41;15.90;99.90
12123;DHT22;6125;59.628;17.852;2023-07-31T04:56:08;16.00;99.90
12123;DHT22;6125;59.628;17.852;2023-07-31T04:58:35;16.00;99.90
12123;DHT22;6125;59.628;17.852;2023-07-31T05:01:02;16.00;99.90
12123;DHT22;6125;59.628;17.852;2023-07-31T05:03:29;16.00;99.90
12123;DHT22;6125;59.628;17.852;2023-07-31T05:06:04;16.00;99.90
12123;DHT22;6125;59.628;17.852;2023-07-31T05:08:32;15.90;99.90
12123;DHT22;6125;59.628;17.852;2023-07-31T05:11:00;15.80;99.90
12123;DHT22;6125;59.628;17.852;2023-07-31T05:13:27;15.70;99.90
12123;DHT22;6125;59.628;17.852;2023-07-31T05:15:54;15.70;99.90
12123;DHT22;6125;59.628;17.852;2023-07-31T05:18:21;15.70;99.90
12123;DHT22;6125;59.628;17.852;2023-07-31T05:20:48;15.80;99.90
12123;DHT22;6125;59.628;17.852;2023-07-31T05:23:15;15.80;99.90
12123;DHT22;6125;59.628;17.852;2023-07-31T05:25:43;15.80;99.90
12123;DHT22;6125;59.628;17.852;2023-07-31T05:28:11;15.90;99.90
12123;DHT22;6125;59.628;17.852;2023-07-31T05:30:39;16.00;99.90
12123;DHT22;6125;59.628;17.852;2023-07-31T05:33:06;16.10;99.90
12123;DHT22;6125;59.628;17.852;2023-07-31T05:35:33;16.20;99.90
12123;DHT22;6125;59.628;17.852;2023-07-31T05:38:00;16.30;99.90
12123;DHT22;6125;59.628;17.852;2023-07-31T05:40:27;16.30;99.90
12123;DHT22;6125;59.628;17.852;2023-07-31T05:42:55;16.40;99.90
12123;DHT22;6125;59.628;17.852;2023-07-31T05:45:22;16.50;99.90
12123;DHT22;6125;59.628;17.852;2023-07-31T05:47:49;16.60;99.90
12123;DHT22;6125;59.628;17.852;2023-07-31T05:50:16;16.70;99.90
12123;DHT22;6125;59.628;17.852;2023-07-31T05:52:43;16.80;99.90
12123;DHT22;6125;59.628;17.852;2023-07-31T05:55:10;16.90;99.90
12123;DHT22;6125;59.628;17.852;2023-07-31T05:57:37;17.00;99.90
12123;DHT22;6125;59.628;17.852;2023-07-31T06:00:07;17.20;99.90
12123;DHT22;6125;59.628;17.852;2023-07-31T06:02:34;17.20;99.90
12123;DHT22;6125;59.628;17.852;2023-07-31T06:05:03;17.20;99.90
12123;DHT22;6125;59.628;17.852;2023-07-31T06:07:31;17.30;99.90
12123;DHT22;6125;59.628;17.852;2023-07-31T06:09:58;17.30;99.90
12123;DHT22;6125;59.628;17.852;2023-07-31T06:12:30;17.50;99.90
12123;DHT22;6125;59.628;17.852;2023-07-31T06:14:57;17.50;99.90
12123;DHT22;6125;59.628;17.852;2023-07-31T06:17:26;17.60;99.90
12123;DHT22;6125;59.628;17.852;2023-07-31T06:19:53;17.60;99.90
12123;DHT22;6125;59.628;17.852;2023-07-31T06:22:20;17.80;99.90
12123;DHT22;6125;59.628;17.852;2023-07-31T06:24:47;17.90;99.90
12123;DHT22;6125;59.628;17.852;2023-07-31T06:27:14;17.90;99.90
12123;DHT22;6125;59.628;17.852;2023-07-31T06:29:42;17.90;99.90
12123;DHT22;6125;59.628;17.852;2023-07-31T06:32:09;18.10;99.90
12123;DHT22;6125;59.628;17.852;2023-07-31T06:34:38;18.20;99.90
12123;DHT22;6125;59.628;17.852;2023-07-31T06:37:05;18.30;99.90
12123;DHT22;6125;59.628;17.852;2023-07-31T06:39:32;18.40;99.90
12123;DHT22;6125;59.628;17.852;2023-07-31T06:41:59;18.50;99.90
12123;DHT22;6125;59.628;17.852;2023-07-31T06:44:26;18.60;99.90
12123;DHT22;6125;59.628;17.852;2023-07-31T06:46:53;18.70;99.90
12123;DHT22;6125;59.628;17.852;2023-07-31T06:49:20;18.70;99.90
12123;DHT22;6125;59.628;17.852;2023-07-31T06:51:49;18.70;99.90
12123;DHT22;6125;59.628;17.852;2023-07-31T06:54:16;18.70;99.90
12123;DHT22;6125;59.628;17.852;2023-07-31T06:56:43;18.60;99.90
12123;DHT22;6125;59.628;17.852;2023-07-31T06:59:10;18.60;99.90
12123;DHT22;6125;59.628;17.852;2023-07-31T07:01:37;18.60;99.90
12123;DHT22;6125;59.628;17.852;2023-07-31T07:04:04;18.60;99.90
12123;DHT22;6125;59.628;17.852;2023-07-31T07:06:31;18.60;99.90
12123;DHT22;6125;59.628;17.852;2023-07-31T07:08:59;18.70;99.90
12123;DHT22;6125;59.628;17.852;2023-07-31T07:11:26;18.80;99.90
12123;DHT22;6125;59.628;17.852;2023-07-31T07:13:53;18.90;99.90
12123;DHT22;6125;59.628;17.852;2023-07-31T07:16:20;19.10;99.90
12123;DHT22;6125;59.628;17.852;2023-07-31T07:18:47;19.20;99.90
12123;DHT22;6125;59.628;17.852;2023-07-31T07:21:14;19.40;99.90
12123;DHT22;6125;59.628;17.852;2023-07-31T07:23:43;19.50;99.90
12123;DHT22;6125;59.628;17.852;2023-07-31T07:26:12;19.50;99.90
12123;DHT22;6125;59.628;17.852;2023-07-31T07:28:39;19.50;99.90
12123;DHT22;6125;59.628;17.852;2023-07-31T07:31:06;19.50;99.90
12123;DHT22;6125;59.628;17.852;2023-07-31T07:33:33;19.60;99.90
12123;DHT22;6125;59.628;17.852;2023-07-31T07:36:00;19.70;99.90
12123;DHT22;6125;59.628;17.852;2023-07-31T07:38:27;19.80;99.90
12123;DHT22;6125;59.628;17.852;2023-07-31T07:40:54;20.00;99.90
12123;DHT22;6125;59.628;17.852;2023-07-31T07:43:23;20.00;99.90
12123;DHT22;6125;59.628;17.852;2023-07-31T07:45:50;20.00;99.90
12123;DHT22;6125;59.628;17.852;2023-07-31T07:48:17;20.00;99.90
12123;DHT22;6125;59.628;17.852;2023-07-31T07:50:44;20.10;99.90
12123;DHT22;6125;59.628;17.852;2023-07-31T07:53:11;20.10;99.90
12123;DHT22;6125;59.628;17.852;2023-07-31T07:55:39;20.10;99.90
12123;DHT22;6125;59.628;17.852;2023-07-31T07:58:07;20.00;99.90
12123;DHT22;6125;59.628;17.852;2023-07-31T08:00:36;20.00;99.90
12123;DHT22;6125;59.628;17.852;2023-07-31T08:03:03;19.90;99.90
12123;DHT22;6125;59.628;17.852;2023-07-31T08:05:30;19.70;99.90
12123;DHT22;6125;59.628;17.852;2023-07-31T08:07:59;19.50;99.90
12123;DHT22;6125;59.628;17.852;2023-07-31T08:10:26;19.30;99.90
12123;DHT22;6125;59.628;17.852;2023-07-31T08:12:53;19.00;99.90
12123;DHT22;6125;59.628;17.852;2023-07-31T08:15:20;18.80;99.90
12123;DHT22;6125;59.628;17.852;2023-07-31T08:17:49;18.70;99.90
12123;DHT22;6125;59.628;17.852;2023-07-31T08:20:16;18.60;99.90
12123;DHT22;6125;59.628;17.852;2023-07-31T08:22:43;18.50;99.90
12123;DHT22;6125;59.628;17.852;2023-07-31T08:25:10;18.30;99.90
12123;DHT22;6125;59.628;17.852;2023-07-31T08:27:37;18.20;99.90
12123;DHT22;6125;59.628;17.852;2023-07-31T08:30:05;18.00;99.90
12123;DHT22;6125;59.628;17.852;2023-07-31T08:32:32;17.80;99.90
12123;DHT22;6125;59.628;17.852;2023-07-31T08:35:01;17.60;99.90
12123;DHT22;6125;59.628;17.852;2023-07-31T08:37:28;17.40;99.90
12123;DHT22;6125;59.628;17.852;2023-07-31T08:39:55;17.20;99.90
12123;DHT22;6125;59.628;17.852;2023-07-31T08:42:22;17.00;99.90
12123;DHT22;6125;59.628;17.852;2023-07-31T08:44:51;17.00;99.90
12123;DHT22;6125;59.628;17.852;2023-07-31T08:47:20;16.90;99.90
12123;DHT22;6125;59.628;17.852;2023-07-31T08:49:48;16.80;99.90
12123;DHT22;6125;59.628;17.852;2023-07-31T08:52:17;16.70;99.90
12123;DHT22;6125;59.628;17.852;2023-07-31T08:54:44;16.50;99.90
12123;DHT22;6125;59.628;17.852;2023-07-31T08:57:12;16.50;99.90
12123;DHT22;6125;59.628;17.852;2023-07-31T08:59:40;16.40;99.90
12123;DHT22;6125;59.628;17.852;2023-07-31T09:02:08;16.30;99.90
12123;DHT22;6125;59.628;17.852;2023-07-31T09:04:35;16.30;99.90
12123;DHT22;6125;59.628;17.852;2023-07-31T09:07:03;16.20;99.90
12123;DHT22;6125;59.628;17.852;2023-07-31T09:09:32;16.20;99.90
12123;DHT22;6125;59.628;17.852;2023-07-31T09:11:59;16.10;99.90
12123;DHT22;6125;59.628;17.852;2023-07-31T09:14:26;16.00;99.90
12123;DHT22;6125;59.628;17.852;2023-07-31T09:16:54;16.00;99.90
12123;DHT22;6125;59.628;17.852;2023-07-31T09:19:34;15.90;99.90
12123;DHT22;6125;59.628;17.852;2023-07-31T09:22:03;15.80;99.90
12123;DHT22;6125;59.628;17.852;2023-07-31T09:24:33;15.80;99.90
12123;DHT22;6125;59.628;17.852;2023-07-31T09:27:01;15.60;99.90
12123;DHT22;6125;59.628;17.852;2023-07-31T09:29:29;15.50;99.90
12123;DHT22;6125;59.628;17.852;2023-07-31T09:31:56;15.40;99.90
12123;DHT22;6125;59.628;17.852;2023-07-31T09:34:29;15.30;99.90
12123;DHT22;6125;59.628;17.852;2023-07-31T09:37:01;15.30;99.90
12123;DHT22;6125;59.628;17.852;2023-07-31T09:39:29;15.20;99.90
12123;DHT22;6125;59.628;17.852;2023-07-31T09:41:58;15.20;99.90
12123;DHT22;6125;59.628;17.852;2023-07-31T09:44:37;15.10;99.90
12123;DHT22;6125;59.628;17.852;2023-07-31T09:47:05;15.10;99.90
12123;DHT22;6125;59.628;17.852;2023-07-31T09:49:33;15.00;99.90
12123;DHT22;6125;59.628;17.852;2023-07-31T09:52:00;15.00;99.90
12123;DHT22;6125;59.628;17.852;2023-07-31T09:54:27;15.00;99.90
12123;DHT22;6125;59.628;17.852;2023-07-31T09:56:54;15.10;99.90
12123;DHT22;6125;59.628;17.852;2023-07-31T09:59:25;15.20;99.90
12123;DHT22;6125;59.628;17.852;2023-07-31T10:01:53;15.30;99.90
12123;DHT22;6125;59.628;17.852;2023-07-31T10:04:27;15.40;99.90
12123;DHT22;6125;59.628;17.852;2023-07-31T10:06:55;15.50;99.90
12123;DHT22;6125;59.628;17.852;2023-07-31T10:09:23;15.60;99.90
12123;DHT22;6125;59.628;17.852;2023-07-31T10:11:56;15.60;99.90
12123;DHT22;6125;59.628;17.852;2023-07-31T10:14:27;15.60;99.90
12123;DHT22;6125;59.628;17.852;2023-07-31T10:16:55;15.70;99.90
12123;DHT22;6125;59.628;17.852;2023-07-31T10:19:23;15.80;99.90
12123;DHT22;6125;59.628;17.852;2023-07-31T10:21:50;15.80;99.90
12123;DHT22;6125;59.628;17.852;2023-07-31T10:24:18;15.90;99.90
12123;DHT22;6125;59.628;17.852;2023-07-31T10:26:48;16.00;99.90
12123;DHT22;6125;59.628;17.852;2023-07-31T10:29:16;16.10;99.90
12123;DHT22;6125;59.628;17.852;2023-07-31T10:31:46;16.20;99.90
12123;DHT22;6125;59.628;17.852;2023-07-31T10:34:13;16.30;99.90
12123;DHT22;6125;59.628;17.852;2023-07-31T10:36:41;16.40;99.90
12123;DHT22;6125;59.628;17.852;2023-07-31T10:39:34;16.50;99.90
12123;DHT22;6125;59.628;17.852;2023-07-31T10:42:10;16.80;99.90
12123;DHT22;6125;59.628;17.852;2023-07-31T10:44:37;17.30;99.90
12123;DHT22;6125;59.628;17.852;2023-07-31T10:47:07;17.70;99.90
12123;DHT22;6125;59.628;17.852;2023-07-31T10:49:34;18.10;99.90
12123;DHT22;6125;59.628;17.852;2023-07-31T10:52:03;18.40;99.90
12123;DHT22;6125;59.628;17.852;2023-07-31T10:54:30;18.70;99.90
12123;DHT22;6125;59.628;17.852;2023-07-31T10:56:57;18.80;99.90
12123;DHT22;6125;59.628;17.852;2023-07-31T10:59:26;18.90;99.90
12123;DHT22;6125;59.628;17.852;2023-07-31T11:01:56;18.90;99.90
12123;DHT22;6125;59.628;17.852;2023-07-31T11:04:26;18.90;99.90
12123;DHT22;6125;59.628;17.852;2023-07-31T11:06:56;18.80;99.90
12123;DHT22;6125;59.628;17.852;2023-07-31T11:09:27;18.70;99.90
12123;DHT22;6125;59.628;17.852;2023-07-31T11:11:56;18.60;99.90
12123;DHT22;6125;59.628;17.852;2023-07-31T11:14:23;18.60;99.90
12123;DHT22;6125;59.628;17.852;2023-07-31T11:16:50;18.60;99.90
12123;DHT22;6125;59.628;17.852;2023-07-31T11:19:21;18.60;99.90
12123;DHT22;6125;59.628;17.852;2023-07-31T11:21:51;18.70;99.90
12123;DHT22;6125;59.628;17.852;2023-07-31T11:24:18;18.80;99.90
12123;DHT22;6125;59.628;17.852;2023-07-31T11:26:49;18.90;99.90
12123;DHT22;6125;59.628;17.852;2023-07-31T11:29:17;19.20;99.90
12123;DHT22;6125;59.628;17.852;2023-07-31T11:31:45;19.40;99.90
12123;DHT22;6125;59.628;17.852;2023-07-31T11:34:12;19.50;99.90
12123;DHT22;6125;59.628;17.852;2023-07-31T11:36:39;19.70;99.90
12123;DHT22;6125;59.628;17.852;2023-07-31T11:39:08;19.80;99.90
12123;DHT22;6125;59.628;17.852;2023-07-31T11:41:36;20.00;99.90
12123;DHT22;6125;59.628;17.852;2023-07-31T11:44:07;20.10;99.90
12123;DHT22;6125;59.628;17.852;2023-07-31T11:46:34;20.20;99.90
12123;DHT22;6125;59.628;17.852;2023-07-31T11:49:02;20.20;99.90
12123;DHT22;6125;59.628;17.852;2023-07-31T11:51:29;20.10;99.90
12123;DHT22;6125;59.628;17.852;2023-07-31T11:53:58;20.10;99.90
12123;DHT22;6125;59.628;17.852;2023-07-31T11:56:28;20.00;99.90
12123;DHT22;6125;59.628;17.852;2023-07-31T11:58:58;20.00;99.90
12123;DHT22;6125;59.628;17.852;2023-07-31T12:01:28;19.90;99.90
12123;DHT22;6125;59.628;17.852;2023-07-31T12:03:56;19.90;99.90
12123;DHT22;6125;59.628;17.852;2023-07-31T12:06:32;19.80;99.90
12123;DHT22;6125;59.628;17.852;2023-07-31T12:09:02;19.70;99.90
12123;DHT22;6125;59.628;17.852;2023-07-31T12:11:31;19.70;99.90
12123;DHT22;6125;59.628;17.852;2023-07-31T12:14:20;19.60;99.90
12123;DHT22;6125;59.628;17.852;2023-07-31T12:16:48;19.60;99.90
12123;DHT22;6125;59.628;17.852;2023-07-31T12:19:19;19.50;99.90
12123;DHT22;6125;59.628;17.852;2023-07-31T12:21:46;19.60;99.90
12123;DHT22;6125;59.628;17.852;2023-07-31T12:24:13;19.50;99.90
12123;DHT22;6125;59.628;17.852;2023-07-31T12:26:45;19.50;99.90
12123;DHT22;6125;59.628;17.852;2023-07-31T12:29:13;19.50;99.90
12123;DHT22;6125;59.628;17.852;2023-07-31T12:31:41;19.60;99.90
12123;DHT22;6125;59.628;17.852;2023-07-31T12:34:16;19.60;99.90
12123;DHT22;6125;59.628;17.852;2023-07-31T12:36:44;19.70;99.90
12123;DHT22;6125;59.628;17.852;2023-07-31T12:39:12;19.70;99.90
12123;DHT22;6125;59.628;17.852;2023-07-31T12:41:39;19.70;99.90
12123;DHT22;6125;59.628;17.852;2023-07-31T12:44:07;19.70;99.90
12123;DHT22;6125;59.628;17.852;2023-07-31T12:46:35;19.60;99.90
12123;DHT22;6125;59.628;17.852;2023-07-31T12:49:02;19.60;99.90
12123;DHT22;6125;59.628;17.852;2023-07-31T12:51:29;19.60;99.90
12123;DHT22;6125;59.628;17.852;2023-07-31T12:53:56;19.50;99.90
12123;DHT22;6125;59.628;17.852;2023-07-31T12:56:23;19.50;99.90
12123;DHT22;6125;59.628;17.852;2023-07-31T12:58:51;19.40;99.90
12123;DHT22;6125;59.628;17.852;2023-07-31T13:01:19;19.40;99.90
12123;DHT22;6125;59.628;17.852;2023-07-31T13:03:46;19.40;99.90
12123;DHT22;6125;59.628;17.852;2023-07-31T13:06:13;19.40;99.90
12123;DHT22;6125;59.628;17.852;2023-07-31T13:08:40;19.40;99.90
12123;DHT22;6125;59.628;17.852;2023-07-31T13:11:07;19.40;99.90
12123;DHT22;6125;59.628;17.852;2023-07-31T13:13:34;19.40;99.90
12123;DHT22;6125;59.628;17.852;2023-07-31T13:16:01;19.40;99.90
12123;DHT22;6125;59.628;17.852;2023-07-31T13:18:30;19.40;99.90
12123;DHT22;6125;59.628;17.852;2023-07-31T13:20:57;19.30;99.90
12123;DHT22;6125;59.628;17.852;2023-07-31T13:23:24;19.40;99.90
12123;DHT22;6125;59.628;17.852;2023-07-31T13:25:51;19.40;99.90
12123;DHT22;6125;59.628;17.852;2023-07-31T13:28:18;19.40;99.90
12123;DHT22;6125;59.628;17.852;2023-07-31T13:30:45;19.40;99.90
12123;DHT22;6125;59.628;17.852;2023-07-31T13:33:12;19.60;99.90
12123;DHT22;6125;59.628;17.852;2023-07-31T13:35:41;19.60;99.90
12123;DHT22;6125;59.628;17.852;2023-07-31T13:38:08;19.60;99.90
12123;DHT22;6125;59.628;17.852;2023-07-31T13:40:35;19.60;99.90
12123;DHT22;6125;59.628;17.852;2023-07-31T13:43:02;19.50;99.90
12123;DHT22;6125;59.628;17.852;2023-07-31T13:45:29;19.40;99.90
12123;DHT22;6125;59.628;17.852;2023-07-31T13:47:56;19.10;99.90
12123;DHT22;6125;59.628;17.852;2023-07-31T13:50:23;18.80;99.90
12123;DHT22;6125;59.628;17.852;2023-07-31T13:52:52;18.60;99.90
12123;DHT22;6125;59.628;17.852;2023-07-31T13:55:19;18.50;99.90
12123;DHT22;6125;59.628;17.852;2023-07-31T13:57:46;18.40;99.90
12123;DHT22;6125;59.628;17.852;2023-07-31T14:00:14;18.30;99.90
12123;DHT22;6125;59.628;17.852;2023-07-31T14:02:41;18.30;99.90
12123;DHT22;6125;59.628;17.852;2023-07-31T14:05:08;18.30;99.90
12123;DHT22;6125;59.628;17.852;2023-07-31T14:07:36;18.30;99.90
12123;DHT22;6125;59.628;17.852;2023-07-31T14:10:05;18.40;99.90
12123;DHT22;6125;59.628;17.852;2023-07-31T14:12:32;18.50;99.90
12123;DHT22;6125;59.628;17.852;2023-07-31T14:14:59;18.60;99.90
12123;DHT22;6125;59.628;17.852;2023-07-31T14:17:26;18.70;99.90
12123;DHT22;6125;59.628;17.852;2023-07-31T14:19:53;18.80;99.90
12123;DHT22;6125;59.628;17.852;2023-07-31T14:22:28;18.90;99.90
12123;DHT22;6125;59.628;17.852;2023-07-31T14:24:55;18.90;99.90
12123;DHT22;6125;59.628;17.852;2023-07-31T14:27:24;18.90;99.90
12123;DHT22;6125;59.628;17.852;2023-07-31T14:29:51;19.00;99.90
12123;DHT22;6125;59.628;17.852;2023-07-31T14:32:18;19.00;99.90
12123;DHT22;6125;59.628;17.852;2023-07-31T14:34:45;19.10;99.90
12123;DHT22;6125;59.628;17.852;2023-07-31T14:37:12;19.20;99.90
12123;DHT22;6125;59.628;17.852;2023-07-31T14:39:39;19.40;99.90
12123;DHT22;6125;59.628;17.852;2023-07-31T14:42:06;19.50;99.90
12123;DHT22;6125;59.628;17.852;2023-07-31T14:44:35;19.60;99.90
12123;DHT22;6125;59.628;17.852;2023-07-31T14:47:02;19.60;99.90
12123;DHT22;6125;59.628;17.852;2023-07-31T14:49:29;19.60;99.90
12123;DHT22;6125;59.628;17.852;2023-07-31T14:51:56;19.60;99.90
12123;DHT22;6125;59.628;17.852;2023-07-31T14:54:23;19.60;99.90
12123;DHT22;6125;59.628;17.852;2023-07-31T14:56:50;19.40;99.90
12123;DHT22;6125;59.628;17.852;2023-07-31T14:59:17;19.40;99.90
12123;DHT22;6125;59.628;17.852;2023-07-31T15:01:45;19.30;99.90
12123;DHT22;6125;59.628;17.852;2023-07-31T15:04:12;19.30;99.90
12123;DHT22;6125;59.628;17.852;2023-07-31T15:06:39;19.30;99.90
12123;DHT22;6125;59.628;17.852;2023-07-31T15:09:06;19.30;99.90
12123;DHT22;6125;59.628;17.852;2023-07-31T15:11:34;19.30;99.90
12123;DHT22;6125;59.628;17.852;2023-07-31T15:14:01;19.20;99.90
12123;DHT22;6125;59.628;17.852;2023-07-31T15:16:28;19.20;99.90
12123;DHT22;6125;59.628;17.852;2023-07-31T15:18:58;19.20;99.90
12123;DHT22;6125;59.628;17.852;2023-07-31T15:21:25;19.20;99.90
12123;DHT22;6125;59.628;17.852;2023-07-31T15:23:52;19.20;99.90
12123;DHT22;6125;59.628;17.852;2023-07-31T15:26:19;19.10;99.90
12123;DHT22;6125;59.628;17.852;2023-07-31T15:28:49;19.10;99.90
12123;DHT22;6125;59.628;17.852;2023-07-31T15:31:16;19.10;99.90
12123;DHT22;6125;59.628;17.852;2023-07-31T15:33:43;19.10;99.90
12123;DHT22;6125;59.628;17.852;2023-07-31T15:36:12;19.10;99.90